Latest Weather Observations for Wyndham Airport

IDW60801

Issued at 10:05 am WST Sunday 23 November 2014 (issued every 30 minutes, with the page automatically refreshed every 10 minutes)

About weather observations | Map of weather stations | Latest weather observations for WA | Other Formats
Station Details ID: 001006 Name: WYNDHAM AERO Lat: -15.51 Lon: 128.15 Height: 3.8 m
Data from the previous 72 hours. | See also: Recent months for locations in Western Australia
Date/Time
WST
Temp
°C
App
Temp
°C
Dew
Point
Rel
Hum
%
Delta-T
°C
Wind Press
QNH
hPa
Press
MSL
hPa
Rain
since 9 am
mm
Dir
 
Spd
km/h
Gust
km/h
Spd
kts
Gust
kts
23/10:00am 36.2 38.0 20.4 39 10.6 SW 11 17 6 9 1010.0 1010.0 0.0
23/09:30am 35.1 36.8 20.2 41 10.0 NNW 11 15 6 8 1010.5 1010.5 0.0
23/09:00am 33.5 36.2 20.3 46 8.8 WSW 6 11 3 6 1010.8 1010.8 2.6
23/08:30am 33.3 36.2 21.1 48 8.2 NW 7 13 4 7 1010.8 1010.8 2.6
23/08:00am 32.4 35.5 21.0 51 7.7 ESE 6 9 3 5 1010.8 1010.8 2.6
23/07:30am 31.2 35.1 21.9 57 6.3 NW 4 9 2 5 1010.7 1010.7 2.6
23/07:00am 30.2 34.2 22.1 62 5.5 WSW 4 9 2 5 1010.5 1010.5 2.6
23/06:30am 29.4 32.6 22.4 66 4.7 WSW 9 11 5 6 1010.2 1010.2 2.6
23/06:00am 29.0 31.5 22.5 68 4.4 W 13 17 7 9 1010.0 1010.0 2.6
23/05:30am 28.6 31.2 22.6 70 4.1 W 13 17 7 9 1009.5 1009.5 2.6
23/05:00am 27.6 32.1 24.0 81 2.5 NW 7 11 4 6 1009.1 1009.1 2.6
23/04:30am 27.5 31.6 23.9 81 2.5 NW 9 11 5 6 1008.8 1008.8 2.6
23/04:00am 27.9 32.1 23.5 77 3.0 W 7 11 4 6 1008.8 1008.8 2.6
23/03:30am 27.7 30.7 23.3 77 3.0 SSW 13 15 7 8 1008.7 1008.7 2.6
23/03:00am 27.4 31.5 23.2 78 2.9 SSW 7 9 4 5 1008.8 1008.8 2.6
23/02:30am 27.5 31.1 23.1 77 3.0 SSW 9 13 5 7 1008.8 1008.8 2.6
23/02:00am 27.5 31.6 23.3 78 2.9 W 7 7 4 4 1008.7 1008.7 2.6
23/01:30am 27.4 31.3 23.0 77 3.0 WNW 7 9 4 5 1008.8 1008.8 2.6
23/01:00am 27.6 31.2 23.0 76 3.1 WNW 9 11 5 6 1009.0 1009.0 2.6
23/12:30am 27.7 31.1 23.3 77 3.0 WNW 11 13 6 7 1009.0 1009.0 2.6
23/12:00am 27.9 32.1 23.5 77 3.0 WNW 7 9 4 5 1009.5 1009.5 2.6
 
Date/Time
WST
Temp
°C
App
Temp
°C
Dew
Point
Rel
Hum
%
Delta-T
°C
Wind Press
QNH
hPa
Press
MSL
hPa
Rain
since 9 am
mm
Dir
 
Spd
km/h
Gust
km/h
Spd
kts
Gust
kts
22/11:30pm 27.9 31.9 22.8 74 3.5 W 6 7 3 4 1010.2 1010.2 2.6
22/11:00pm 28.2 31.1 22.4 71 3.9 W 11 11 6 6 1010.0 1010.0 2.6
22/10:30pm 28.6 29.3 21.6 66 4.7 S 20 24 11 13 1010.7 1010.7 2.6
22/10:00pm 28.5 29.9 21.8 67 4.5 SW 17 22 9 12 1011.0 1011.0 2.6
22/09:30pm 28.7 30.6 22.7 70 4.1 SSW 17 20 9 11 1011.2 1011.2 2.6
22/09:00pm 28.4 28.7 22.9 72 3.7 SSW 26 35 14 19 1011.3 1011.3 2.6
22/08:30pm 29.1 29.3 22.1 66 4.7 S 24 33 13 18 1011.2 1011.2 2.6
22/08:00pm 29.6 28.8 22.3 65 5.0 S 30 41 16 22 1011.4 1011.4 2.6
22/07:49pm 29.5 28.5 22.0 64 5.1 SW 30 46 16 25 1011.0 1011.0 2.6
22/07:30pm 31.6 33.1 22.0 56 6.5 NNE 17 24 9 13 1009.9 1009.9 2.6
22/07:00pm 31.6 30.6 21.2 54 7.0 N 28 41 15 22 1008.9 1008.9 2.6
22/06:30pm 31.8 30.5 21.3 53 7.1 NNE 30 41 16 22 1008.2 1008.2 2.6
22/06:00pm 32.4 30.8 21.6 53 7.3 NNE 32 41 17 22 1007.7 1007.7 2.6
22/05:30pm 32.5 31.4 21.7 53 7.3 N 30 39 16 21 1006.5 1006.5 2.6
22/05:00pm 33.4 34.8 22.5 52 7.5 N 19 32 10 17 1006.1 1006.1 2.6
22/04:30pm 34.4 37.7 22.5 50 8.2 ESE 9 17 5 9 1006.0 1006.0 2.6
22/04:00pm 33.8 37.5 22.2 50 8.0 W 6 11 3 6 1005.4 1005.4 2.6
22/03:30pm 31.6 35.5 22.9 60 6.0 SE 7 17 4 9 1005.2 1005.2 2.6
22/03:00pm 28.2 28.1 21.5 67 4.5 N 24 41 13 22 1006.0 1006.0 2.4
22/02:53pm 29.6 28.6 21.3 61 5.6 N 28 41 15 22 1006.2 1006.2 1.6
22/02:40pm 30.6 28.0 22.2 61 5.7 NNW 39 57 21 31 1005.9 1005.9 1.4
22/02:36pm 28.1 25.0 22.6 72 3.7 N 43 57 23 31 1006.2 1006.2 1.4
22/02:30pm 25.6 15.7 20.2 72 3.5 N 72 96 39 52 1005.8 1005.8 0.6
22/02:29pm 27.1 18.0 20.7 68 4.2 N 69 87 37 47 1005.7 1005.7 0.4
22/02:27pm 28.7 24.2 20.2 60 5.6 N 44 69 24 37 1005.6 1005.6 0.2
22/02:17pm 34.6 30.6 20.9 44 9.2 N 43 61 23 33 1005.4 1005.4 0.0
22/02:11pm 35.9 30.9 18.9 36 11.2 N 43 54 23 29 1005.2 1005.2 0.0
22/02:00pm 41.2 41.3 16.6 24 16.0 E 11 20 6 11 1005.2 1005.2 0.0
22/01:30pm 41.7 42.6 17.6 24 15.9 NE 9 20 5 11 1005.9 1005.9 0.0
22/01:00pm 40.9 40.8 17.0 25 15.6 NNW 13 30 7 16 1006.7 1006.7 0.0
22/12:30pm 41.1 41.4 17.1 24 15.7 E 11 20 6 11 1007.2 1007.2 0.0
22/12:00pm 39.8 39.8 17.3 27 14.7 E 13 24 7 13 1007.9 1007.9 0.0
22/11:30am 40.3 40.9 17.7 26 14.8 ESE 11 22 6 12 1008.3 1008.3 0.0
22/11:00am 38.7 39.0 18.0 29 13.6 ESE 13 22 7 12 1008.9 1008.9 0.0
22/10:30am 38.0 38.3 17.9 30 13.1 ENE 13 24 7 13 1009.5 1009.5 0.0
22/10:00am 38.6 39.3 18.9 31 13.1 ENE 13 20 7 11 1009.8 1009.8 0.0
22/09:30am 38.3 38.8 19.2 32 12.7 ESE 15 26 8 14 1010.4 1010.4 0.0
22/09:00am 36.9 37.0 18.4 33 12.2 E 15 24 8 13 1010.6 1010.6 0.0
22/08:30am 36.5 38.8 19.9 38 11.1 E 7 17 4 9 1010.7 1010.7 0.0
22/08:00am 35.1 35.7 18.6 37 10.8 E 13 20 7 11 1010.7 1010.7 0.0
22/07:30am 34.3 37.7 22.0 48 8.4 S 7 15 4 8 1010.8 1010.8 0.0
22/07:00am 33.1 36.9 22.8 54 7.1 W 7 13 4 7 1010.6 1010.6 0.0
22/06:30am 32.1 36.5 22.8 58 6.4 W 4 9 2 5 1010.3 1010.3 0.0
22/06:00am 31.1 36.4 23.0 62 5.6 CALM 0 0 0 0 1010.2 1010.2 0.0
22/05:30am 29.6 34.7 22.6 66 4.8 CALM 0 0 0 0 1009.8 1009.8 0.0
22/05:00am 28.4 33.1 21.9 68 4.4 CALM 0 0 0 0 1009.4 1009.4 0.0
22/04:30am 28.9 33.5 22.4 68 4.4 NNW 2 7 1 4 1009.1 1009.1 0.0
22/04:00am 28.9 32.2 21.9 66 4.7 N 7 9 4 5 1008.7 1008.7 0.0
22/03:30am 29.1 32.7 22.3 66 4.6 ENE 7 9 4 5 1008.7 1008.7 0.0
22/03:00am 29.8 33.5 22.5 65 5.0 SSE 7 9 4 5 1008.6 1008.6 0.0
22/02:30am 30.4 34.2 22.8 64 5.2 WSW 7 9 4 5 1008.4 1008.4 0.0
22/02:00am 30.8 33.2 22.9 62 5.4 WNW 15 17 8 9 1007.7 1007.7 0.0
22/01:30am 31.0 33.5 23.1 63 5.4 WNW 15 19 8 10 1007.8 1007.8 0.0
22/01:00am 31.2 33.4 23.3 63 5.5 W 17 22 9 12 1008.0 1008.0 0.0
22/12:30am 31.3 32.7 22.9 61 5.8 WNW 20 24 11 13 1008.2 1008.2 0.0
22/12:00am 31.5 33.1 22.8 60 6.0 W 19 24 10 13 1008.6 1008.6 0.0
 
Date/Time
WST
Temp
°C
App
Temp
°C
Dew
Point
Rel
Hum
%
Delta-T
°C
Wind Press
QNH
hPa
Press
MSL
hPa
Rain
since 9 am
mm
Dir
 
Spd
km/h
Gust
km/h
Spd
kts
Gust
kts
21/11:30pm 31.6 32.5 22.6 59 6.2 W 22 26 12 14 1008.8 1008.8 0.0
21/11:00pm 31.7 33.0 22.4 58 6.4 W 19 24 10 13 1009.2 1009.2 0.0
21/10:30pm 31.9 33.8 21.4 53 7.1 W 13 19 7 10 1009.3 1009.3 0.0
21/10:00pm 32.0 33.8 20.3 50 7.8 W 11 13 6 7 1009.3 1009.3 0.0
21/09:30pm 32.0 32.9 19.3 47 8.3 NW 13 15 7 8 1009.2 1009.2 0.0
21/09:00pm 32.2 33.2 19.5 47 8.4 NW 13 17 7 9 1009.2 1009.2 0.0
21/08:30pm 32.8 33.5 19.6 45 8.7 NW 15 20 8 11 1009.2 1009.2 0.0
21/08:00pm 33.1 35.1 19.9 45 8.8 WNW 9 11 5 6 1008.7 1008.7 0.0
21/07:30pm 33.1 33.5 20.9 48 8.2 NNW 20 26 11 14 1008.2 1008.2 0.0
21/07:00pm 32.9 35.9 22.0 52 7.4 NW 9 17 5 9 1007.7 1007.7 0.0
21/06:30pm 33.1 33.6 21.9 51 7.6 N 22 35 12 19 1007.0 1007.0 0.0
21/06:00pm 33.0 32.0 23.0 55 6.9 N 33 48 18 26 1006.4 1006.4 0.0
21/05:30pm 33.7 32.2 22.8 53 7.5 N 35 46 19 25 1006.1 1006.1 0.0
21/05:00pm 34.8 32.4 21.8 46 8.9 N 37 46 20 25 1006.0 1006.0 0.0
21/04:30pm 36.1 32.7 19.1 36 11.2 N 35 44 19 24 1005.5 1005.5 0.0
21/04:00pm 37.4 34.3 18.9 34 12.3 N 33 41 18 22 1005.3 1005.3 0.0
21/03:30pm 39.3 38.0 19.0 30 13.5 N 24 33 13 18 1005.1 1005.1 0.0
21/03:00pm 39.2 38.1 19.5 32 13.2 N 24 39 13 21 1005.4 1005.4 0.0
21/02:30pm 40.8 38.8 19.2 28 14.5 N 28 41 15 22 1005.6 1005.6 0.0
21/02:00pm 39.8 38.1 18.9 29 13.9 NNW 26 37 14 20 1005.7 1005.7 0.0
21/01:30pm 41.2 40.5 19.6 28 14.6 N 22 37 12 20 1006.0 1006.0 0.0
21/01:00pm 40.6 41.2 18.5 27 14.7 WNW 13 20 7 11 1006.4 1006.4 0.0
21/12:30pm 39.9 40.7 17.3 26 14.7 ENE 9 15 5 8 1006.9 1006.9 0.0
21/12:00pm 40.6 41.2 18.5 27 14.7 N 13 24 7 13 1007.4 1007.4 0.0
21/11:30am 39.2 40.1 18.4 29 13.7 N 11 20 6 11 1007.9 1007.9 0.0
21/11:00am 39.0 39.6 17.7 28 14.0 NNE 11 24 6 13 1008.4 1008.4 0.0
21/10:30am 39.1 40.3 18.3 29 13.7 S 9 17 5 9 1009.0 1009.0 0.0
21/10:00am 38.6 39.7 18.9 31 13.1 ENE 11 19 6 10 1009.5 1009.5 0.0
21/09:30am 36.8 38.5 19.3 36 11.6 N 9 20 5 11 1009.8 1009.8 0.0
21/09:00am 36.7 39.1 20.1 38 11.1 N 7 15 4 8 1010.0 1010.0 0.0
21/08:30am 36.2 38.8 20.0 38 10.8 E 6 9 3 5 1010.2 1010.2 0.0
21/08:00am 35.1 37.4 20.6 42 9.8 NNW 9 13 5 7 1010.2 1010.2 0.0
21/07:30am 33.6 36.5 21.1 48 8.4 WNW 7 13 4 7 1010.2 1010.2 0.0
21/07:00am 32.9 36.4 21.1 50 7.9 W 4 9 2 5 1010.0 1010.0 0.0
21/06:30am 32.1 35.2 21.0 52 7.4 S 6 9 3 5 1010.1 1010.1 0.0
21/06:00am 31.3 34.9 21.2 55 6.8 SE 4 9 2 5 1009.7 1009.7 0.0
21/05:30am 29.4 33.9 21.6 63 5.2 CALM 0 0 0 0 1009.2 1009.2 0.0
21/05:00am 28.0 32.3 21.1 66 4.6 CALM 0 0 0 0 1008.9 1008.9 0.0
21/04:30am 27.9 31.9 20.5 64 4.9 CALM 0 0 0 0 1008.5 1008.5 0.0
21/04:00am 28.9 31.1 20.4 60 5.6 WSW 9 13 5 7 1008.1 1008.1 0.0
21/03:30am 28.8 31.0 20.5 61 5.5 W 9 11 5 6 1008.1 1008.1 0.0
21/03:00am 28.8 31.4 20.5 61 5.5 SW 7 11 4 6 1007.9 1007.9 0.0
21/02:30am 29.1 32.0 21.1 62 5.3 SW 7 9 4 5 1007.8 1007.8 0.0
21/02:00am 29.4 31.8 20.8 60 5.7 W 9 11 5 6 1007.7 1007.7 0.0
21/01:30am 30.3 32.5 21.1 58 6.1 W 11 13 6 7 1007.7 1007.7 0.0
21/01:00am 30.7 33.1 21.5 58 6.2 NW 11 13 6 7 1008.0 1008.0 0.0
21/12:30am 31.0 33.0 21.5 57 6.4 NW 13 17 7 9 1008.4 1008.4 0.0
21/12:00am 31.4 32.8 21.8 56 6.5 NW 17 20 9 11 1008.7 1008.7 0.0
 
Date/Time
WST
Temp
°C
App
Temp
°C
Dew
Point
Rel
Hum
%
Delta-T
°C
Wind Press
QNH
hPa
Press
MSL
hPa
Rain
since 9 am
mm
Dir
 
Spd
km/h
Gust
km/h
Spd
kts
Gust
kts
20/11:30pm 31.6 34.2 22.0 56 6.5 W 11 17 6 9 1008.9 1008.9 0.0
20/11:00pm 31.4 34.3 22.4 59 6.1 WSW 11 15 6 8 1009.1 1009.1 0.0
20/10:30pm 31.0 34.2 22.3 60 5.9 SW 9 13 5 7 1009.4 1009.4 0.0
20/10:00pm 30.6 35.7 22.7 62 5.4 CALM 0 0 0 0 1009.3 1009.3 0.0
20/09:30pm 30.6 34.9 22.7 62 5.4 N 4 6 2 3 1009.2 1009.2 0.0
20/09:00pm 31.1 35.3 22.4 60 5.9 N 4 6 2 3 1008.9 1008.9 0.0
20/08:30pm 31.6 37.1 23.4 61 5.7 CALM 0 6 0 3 1008.7 1008.7 0.0
20/08:00pm 31.9 36.4 24.0 63 5.5 N 7 15 4 8 1008.4 1008.4 0.0
20/07:30pm 31.9 36.3 24.5 65 5.2 N 9 17 5 9 1008.0 1008.0 0.0
20/07:00pm 31.7 34.1 24.6 66 5.0 NNW 20 39 11 21 1007.8 1007.8 0.0
20/06:30pm 32.1 31.3 23.3 59 6.1 N 33 44 18 24 1006.6 1006.6 0.0
20/06:00pm 32.1 31.1 23.6 60 5.9 N 35 44 19 24 1006.1 1006.1 0.0
20/05:30pm 32.6 32.1 23.8 59 6.1 N 33 44 18 24 1005.9 1005.9 0.0
20/05:00pm 33.3 32.6 23.6 56 6.8 N 33 44 18 24 1005.8 1005.8 0.0
20/04:30pm 34.3 33.8 23.6 53 7.5 N 32 43 17 23 1005.3 1005.3 0.0
20/04:00pm 36.1 35.5 23.7 49 8.7 N 33 44 18 24 1004.8 1004.8 0.0
20/03:30pm 38.0 36.5 20.3 35 11.9 N 28 35 15 19 1004.7 1004.7 0.0
20/03:02pm 40.7 37.1 18.6 27 14.7 NE 35 50 19 27 1004.6 1004.6 0.0
20/03:00pm 42.0 39.9 13.6 19 17.8 ENE 17 26 9 14 1004.8 1004.8 0.0
20/02:30pm 41.5 39.5 11.5 17 18.2 SE 13 26 7 14 1005.3 1005.3 0.0
20/02:00pm 41.1 39.3 14.4 21 16.9 W 17 24 9 13 1005.7 1005.7 0.0
20/01:30pm 39.1 39.1 17.2 27 14.2 WNW 13 20 7 11 1006.3 1006.3 0.0
20/01:00pm 38.9 38.9 18.2 30 13.7 W 15 22 8 12 1007.0 1007.0 0.0
20/12:30pm 39.4 39.0 16.3 25 14.9 W 13 20 7 11 1007.4 1007.4 0.0
20/12:00pm 38.0 39.2 17.4 29 13.4 W 7 15 4 8 1007.8 1007.8 0.0
20/11:30am 36.9 38.6 18.0 33 12.3 SW 6 11 3 6 1008.4 1008.4 0.0
20/11:00am 35.6 37.8 19.5 38 10.7 W 7 11 4 6 1008.9 1008.9 0.0
20/10:30am 33.9 36.4 21.0 47 8.7 WSW 9 13 5 7 1009.6 1009.6 0.0

Other Formats:

Comma delimited format used in spreadsheet applications
http://www.bom.gov.au/fwo/IDW60801/IDW60801.95214.axf

JavaScript Object Notation format (JSON) in row-major order
http://www.bom.gov.au/fwo/IDW60801/IDW60801.95214.json